Time;durP1;ratioP1;P1;durP2;ratioP2;P2;SDS_P1;SDS_P2;PMS_P1;PMS_P2;Temp;Humidity;BMP_temperature;BMP_pressure;BME280_temperature;BME280_humidity;BME280_pressure;Samples;Min_cycle;Max_cycle;Signal;HPM_P1;HPM_P2
2023/05/28 00:01:04;;;;;;;;;;;;;;;24.63;70.95;99230.66;5042503;28;19962;-44
2023/05/28 00:03:31;;;;;;;;;;;;;;;24.09;75.19;99263.34;5043695;28;19920;-44
2023/05/28 00:05:57;;;;;;;;;;;;;;;24.30;73.67;99249.34;5041889;28;19913;-44
2023/05/28 00:08:22;;;;;;;;;;;;;;;24.48;72.94;99237.25;5042244;28;19927;-44
2023/05/28 00:10:47;;;;;;;;;;;;;;;24.13;73.36;99237.59;5040426;28;20496;-43
2023/05/28 00:13:13;;;;;;;;;;;;;;;23.65;74.29;99249.44;5041407;28;19920;-43
2023/05/28 00:15:38;;;;;;;;;;;;;;;23.96;75.52;99244.28;5040500;28;19925;-44
2023/05/28 00:18:04;;;;;;;;;;;;;;;24.10;74.69;99241.31;5041840;28;19983;-43
2023/05/28 00:20:29;;;;;;;;;;;;;;;24.05;73.58;99225.09;5043151;28;19960;-44
2023/05/28 00:22:55;;;;;;;;;;;;;;;24.01;73.51;99229.75;5040932;28;19936;-43
2023/05/28 00:25:20;;;;;;;;;;;;;;;23.54;76.90;99252.13;5042792;28;19920;-43
2023/05/28 00:27:45;;;;;;;;;;;;;;;23.79;76.56;99240.44;5039514;28;19921;-44
2023/05/28 00:30:11;;;;;;;;;;;;;;;23.23;76.50;99249.31;5023633;28;19922;-43
2023/05/28 00:32:36;;;;;;;;;;;;;;;23.42;78.69;99250.47;5042021;28;19959;-44
2023/05/28 00:35:01;;;;;;;;;;;;;;;23.59;76.72;99240.25;5040513;28;19921;-44
2023/05/28 00:37:27;;;;;;;;;;;;;;;22.37;81.99;99270.97;5037846;28;19920;-43
2023/05/28 00:39:52;;;;;;;;;;;;;;;22.34;84.59;99274.66;5039997;28;19927;-44
2023/05/28 00:42:17;;;;;;;;;;;;;;;22.77;81.46;99252.97;5040764;28;19990;-44
2023/05/28 00:44:43;;;;;;;;;;;;;;;22.38;83.82;99268.22;5038605;28;19932;-44
2023/05/28 00:47:09;;;;;;;;;;;;;;;22.50;82.75;99256.78;5039319;28;19971;-43
2023/05/28 00:49:34;;;;;;;;;;;;;;;22.70;80.97;99242.09;5005349;28;20024;-44
2023/05/28 00:51:59;;;;;;;;;;;;;;;22.92;80.48;99241.25;5040674;28;20829;-44
2023/05/28 00:54:25;;;;;;;;;;;;;;;22.28;83.91;99273.34;5040164;28;19925;-43
2023/05/28 00:56:52;;;;;;;;;;;;;;;22.29;81.97;99245.31;5038762;28;19932;-44
2023/05/28 00:59:17;;;;;;;;;;;;;;;21.87;84.94;99268.53;5022460;28;19940;-43
2023/05/28 01:01:42;;;;;;;;;;;;;;;21.77;84.41;99262.34;5020772;28;20003;-43
2023/05/28 01:04:08;;;;;;;;;;;;;;;22.18;84.20;99251.34;5040704;28;19928;-43
2023/05/28 01:06:33;;;;;;;;;;;;;;;22.43;81.40;99234.59;5042743;28;19921;-43
2023/05/28 01:08:58;;;;;;;;;;;;;;;22.73;80.20;99227.91;5023110;28;19972;-43
2023/05/28 01:11:23;;;;;;;;;;;;;;;22.66;78.99;99230.16;5019580;28;19923;-44
2023/05/28 01:13:49;;;;;;;;;;;;;;;22.45;79.47;99227.44;5039809;28;20356;-43
2023/05/28 01:16:14;;;;;;;;;;;;;;;22.20;80.31;99225.84;5018866;28;19924;-43
2023/05/28 01:18:40;;;;;;;;;;;;;;;22.12;80.77;99244.78;5020321;28;20282;-43
2023/05/28 01:21:06;;;;;;;;;;;;;;;21.65;85.24;99264.91;5038527;28;19921;-43
2023/05/28 01:23:42;;;;;;;;;;;;;;;21.97;82.71;99238.06;5040015;28;20617;-43
2023/05/28 01:26:08;;;;;;;;;;;;;;;21.76;86.95;99264.13;5021394;28;19963;-43
2023/05/28 01:28:33;;;;;;;;;;;;;;;21.50;86.45;99260.78;5038144;28;19926;-43
2023/05/28 01:30:58;;;;;;;;;;;;;;;21.91;83.84;99231.50;5037174;28;19951;-43
2023/05/28 01:33:24;;;;;;;;;;;;;;;22.22;81.53;99223.13;5038274;28;19921;-43
2023/05/28 01:35:49;;;;;;;;;;;;;;;22.23;81.00;99224.78;5039164;28;19917;-43
2023/05/28 01:38:14;;;;;;;;;;;;;;;21.43;83.19;99243.84;5021703;28;20282;-44
2023/05/28 01:40:40;;;;;;;;;;;;;;;21.57;84.15;99245.44;5038044;28;20565;-44
2023/05/28 01:43:06;;;;;;;;;;;;;;;21.03;85.84;99262.41;5038480;28;19925;-43
2023/05/28 01:45:31;;;;;;;;;;;;;;;20.37;88.90;99287.91;5020200;28;19917;-43
2023/05/28 01:47:56;;;;;;;;;;;;;;;20.50;88.16;99269.56;5021074;28;19923;-44
2023/05/28 01:50:21;;;;;;;;;;;;;;;20.20;89.51;99275.94;5038553;28;19964;-44
2023/05/28 01:52:47;;;;;;;;;;;;;;;20.06;91.93;99279.47;5038743;28;19987;-44
2023/05/28 01:55:13;;;;;;;;;;;;;;;20.22;90.94;99272.28;5039347;28;20261;-44
2023/05/28 01:57:38;;;;;;;;;;;;;;;21.05;87.55;99239.53;5036881;28;20009;-43
2023/05/28 02:00:04;;;;;;;;;;;;;;;21.09;85.87;99236.59;5038378;28;19967;-43
2023/05/28 02:02:29;;;;;;;;;;;;;;;21.31;85.04;99230.66;5038145;28;20012;-43
2023/05/28 02:04:54;;;;;;;;;;;;;;;21.12;85.43;99232.94;5039087;28;20286;-44
2023/05/28 02:07:20;;;;;;;;;;;;;;;20.70;87.05;99240.28;5038156;28;20144;-44
2023/05/28 02:09:45;;;;;;;;;;;;;;;21.15;86.86;99232.72;5037978;28;19921;-43
2023/05/28 02:12:10;;;;;;;;;;;;;;;21.09;86.47;99239.22;5037906;28;19916;-44
2023/05/28 02:14:36;;;;;;;;;;;;;;;21.23;86.90;99240.88;5037119;28;19938;-44
2023/05/28 02:17:01;;;;;;;;;;;;;;;21.25;85.63;99225.03;5037960;28;19917;-44
2023/05/28 02:19:27;;;;;;;;;;;;;;;20.97;85.79;99234.03;5037264;28;19917;-43
2023/05/28 02:21:52;;;;;;;;;;;;;;;20.20;88.97;99257.63;5037513;28;20791;-43
2023/05/28 02:24:17;;;;;;;;;;;;;;;20.17;90.44;99253.44;5038822;28;19971;-43
2023/05/28 02:26:43;;;;;;;;;;;;;;;20.30;90.44;99243.00;5038965;28;20393;-43
2023/05/28 02:29:08;;;;;;;;;;;;;;;20.13;91.48;99253.78;5037327;28;20464;-43
2023/05/28 02:31:33;;;;;;;;;;;;;;;20.25;91.80;99253.78;5038541;28;19916;-43
2023/05/28 02:33:58;;;;;;;;;;;;;;;20.36;89.39;99232.09;5037983;28;19969;-43
2023/05/28 02:36:23;;;;;;;;;;;;;;;20.30;90.84;99237.78;5038262;28;20199;-43
2023/05/28 02:38:49;;;;;;;;;;;;;;;20.05;91.88;99244.66;5038425;28;19991;-43
2023/05/28 02:41:15;;;;;;;;;;;;;;;20.26;90.95;99241.53;5036681;28;20015;-43
2023/05/28 02:43:40;;;;;;;;;;;;;;;20.42;90.14;99231.69;5038435;28;20380;-44
2023/05/28 02:46:05;;;;;;;;;;;;;;;20.87;88.23;99216.38;5037270;28;20350;-43
2023/05/28 02:48:30;;;;;;;;;;;;;;;20.63;87.92;99224.16;5037665;28;19938;-43
2023/05/28 02:50:56;;;;;;;;;;;;;;;19.52;90.97;99251.63;5036886;28;20252;-43
2023/05/28 02:53:21;;;;;;;;;;;;;;;19.02;95.69;99279.16;5037746;28;20334;-43
2023/05/28 02:55:47;;;;;;;;;;;;;;;19.04;95.99;99277.31;5036899;28;19921;-43
2023/05/28 02:58:12;;;;;;;;;;;;;;;19.61;94.54;99261.50;5035236;28;19920;-43
2023/05/28 03:00:37;;;;;;;;;;;;;;;19.21;94.15;99261.44;5037061;28;19952;-43
2023/05/28 03:03:03;;;;;;;;;;;;;;;19.39;96.23;99271.66;5037562;28;20018;-43
2023/05/28 03:05:28;;;;;;;;;;;;;;;19.60;93.39;99254.56;5037127;28;19960;-43
2023/05/28 03:07:53;;;;;;;;;;;;;;;18.62;98.90;99293.81;5037599;28;19960;-43
2023/05/28 03:10:19;;;;;;;;;;;;;;;18.29;100.00;99316.59;5034775;28;19983;-43
2023/05/28 03:12:44;;;;;;;;;;;;;;;18.30;100.00;99302.63;5037304;28;19924;-43
2023/05/28 03:15:09;;;;;;;;;;;;;;;18.78;100.00;99271.94;5033887;28;20012;-43
2023/05/28 03:17:34;;;;;;;;;;;;;;;18.46;100.00;99291.28;5036732;28;20010;-42
2023/05/28 03:20:00;;;;;;;;;;;;;;;19.11;100.00;99276.00;5036970;28;19928;-43
2023/05/28 03:22:25;;;;;;;;;;;;;;;19.02;98.63;99251.31;5036253;28;19921;-43
2023/05/28 03:24:51;;;;;;;;;;;;;;;18.90;100.00;99272.94;5037291;28;19917;-43
2023/05/28 03:27:16;;;;;;;;;;;;;;;18.81;100.00;99282.19;5009703;28;20309;-43
2023/05/28 03:29:41;;;;;;;;;;;;;;;19.43;98.43;99247.84;5037191;28;19921;-43
2023/05/28 03:32:06;;;;;;;;;;;;;;;19.36;99.17;99256.16;5036042;28;19917;-43
2023/05/28 03:34:31;;;;;;;;;;;;;;;19.01;99.10;99264.47;5017494;28;19936;-43
2023/05/28 03:36:57;;;;;;;;;;;;;;;18.61;100.00;99282.56;5034233;28;19916;-43
2023/05/28 03:39:22;;;;;;;;;;;;;;;18.76;100.00;99273.78;5037188;28;19929;-43
2023/05/28 03:41:48;;;;;;;;;;;;;;;18.23;100.00;99288.28;5036209;28;19974;-43
2023/05/28 03:44:16;;;;;;;;;;;;;;;18.02;100.00;99302.53;5036874;28;19951;-43
2023/05/28 03:46:41;;;;;;;;;;;;;;;18.03;100.00;99291.22;5037029;28;19959;-43
2023/05/28 03:49:06;;;;;;;;;;;;;;;19.01;100.00;99252.25;5036065;28;19959;-43
2023/05/28 03:51:31;;;;;;;;;;;;;;;18.07;100.00;99284.91;5037692;28;20451;-43
2023/05/28 03:53:57;;;;;;;;;;;;;;;18.19;100.00;99276.34;5034859;28;20385;-43
2023/05/28 03:56:22;;;;;;;;;;;;;;;18.85;100.00;99250.69;5036903;28;19968;-43
2023/05/28 03:58:48;;;;;;;;;;;;;;;17.98;100.00;99275.84;5036991;28;19924;-43
2023/05/28 04:01:13;;;;;;;;;;;;;;;18.83;100.00;99248.16;5034937;28;19951;-43
2023/05/28 04:03:38;;;;;;;;;;;;;;;18.80;100.00;99254.41;5036653;28;19920;-43
2023/05/28 04:06:04;;;;;;;;;;;;;;;19.32;100.00;99239.03;5036567;28;20421;-43
2023/05/28 04:08:29;;;;;;;;;;;;;;;19.50;98.49;99221.31;5036061;28;19923;-43
2023/05/28 04:10:54;;;;;;;;;;;;;;;19.69;97.83;99221.00;5036063;28;20341;-43
2023/05/28 04:13:20;;;;;;;;;;;;;;;18.69;100.00;99251.59;5035689;28;20539;-43
2023/05/28 04:15:45;;;;;;;;;;;;;;;19.10;100.00;99240.38;5033635;28;19921;-42
2023/05/28 04:18:10;;;;;;;;;;;;;;;18.99;100.00;99242.84;5035187;28;19960;-43
2023/05/28 04:20:35;;;;;;;;;;;;;;;19.30;100.00;99225.22;5034699;28;19953;-43
2023/05/28 04:23:01;;;;;;;;;;;;;;;20.04;100.00;99222.06;5036924;28;19963;-43
2023/05/28 04:25:26;;;;;;;;;;;;;;;19.01;99.81;99235.75;5035827;28;20007;-42
2023/05/28 04:27:51;;;;;;;;;;;;;;;19.80;98.81;99213.28;5035970;28;19979;-43
2023/05/28 04:30:17;;;;;;;;;;;;;;;20.19;97.92;99211.53;5034436;28;19936;-42
2023/05/28 04:32:42;;;;;;;;;;;;;;;20.73;95.24;99200.78;5034779;28;19925;-43
2023/05/28 04:35:08;;;;;;;;;;;;;;;20.34;95.63;99223.53;5035915;28;19925;-42
2023/05/28 04:37:36;;;;;;;;;;;;;;;19.69;98.60;99249.72;5036519;28;19917;-42
2023/05/28 04:40:02;;;;;;;;;;;;;;;20.51;96.78;99229.41;5035795;28;20006;-43
2023/05/28 04:42:27;;;;;;;;;;;;;;;20.06;98.44;99241.09;5035369;28;19991;-42
2023/05/28 04:44:53;;;;;;;;;;;;;;;20.41;96.29;99227.41;5036957;28;20363;-43
2023/05/28 04:47:19;;;;;;;;;;;;;;;19.92;99.82;99248.22;5040574;28;19927;-43
2023/05/28 04:49:44;;;;;;;;;;;;;;;20.70;96.40;99223.75;5037895;28;19966;-43
2023/05/28 04:52:09;;;;;;;;;;;;;;;21.19;93.11;99200.13;5039505;28;19928;-43
2023/05/28 04:54:35;;;;;;;;;;;;;;;21.16;93.96;99212.59;5039852;28;20008;-42
2023/05/28 04:57:02;;;;;;;;;;;;;;;21.97;91.43;99183.00;5038703;28;19920;-43
2023/05/28 04:59:27;;;;;;;;;;;;;;;22.37;89.85;99187.81;5039788;28;20366;-43
2023/05/28 05:01:52;;;;;;;;;;;;;;;22.22;89.00;99189.84;5038090;28;19917;-43
2023/05/28 05:04:17;;;;;;;;;;;;;;;22.29;88.50;99192.84;5039727;28;19920;-43
2023/05/28 05:06:43;;;;;;;;;;;;;;;22.29;88.12;99192.84;5038774;28;20003;-43
2023/05/28 05:09:08;;;;;;;;;;;;;;;22.68;87.49;99190.69;5039265;28;19924;-43
2023/05/28 05:11:33;;;;;;;;;;;;;;;22.87;87.29;99195.28;5037466;28;20011;-43
2023/05/28 05:13:58;;;;;;;;;;;;;;;22.65;86.70;99193.53;5034903;28;20027;-43
2023/05/28 05:16:24;;;;;;;;;;;;;;;22.89;86.60;99194.22;5039197;28;20059;-43
2023/05/28 05:18:49;;;;;;;;;;;;;;;23.11;85.92;99203.88;5038459;28;20369;-43
2023/05/28 05:21:14;;;;;;;;;;;;;;;23.60;85.02;99196.38;5038417;28;19994;-43
2023/05/28 05:23:40;;;;;;;;;;;;;;;23.73;83.79;99193.56;5037582;28;19963;-43
2023/05/28 05:26:05;;;;;;;;;;;;;;;23.62;84.77;99201.50;5038802;28;19925;-43
2023/05/28 05:28:31;;;;;;;;;;;;;;;23.97;83.61;99195.94;5038361;28;19960;-43
2023/05/28 05:30:56;;;;;;;;;;;;;;;24.24;82.58;99195.41;5038600;28;19925;-43
2023/05/28 05:33:21;;;;;;;;;;;;;;;24.49;81.68;99196.78;5036951;28;19921;-43
2023/05/28 05:35:46;;;;;;;;;;;;;;;23.47;82.46;99203.59;5038241;28;20134;-43
2023/05/28 05:38:11;;;;;;;;;;;;;;;21.44;92.63;99288.28;5037938;28;19925;-43
2023/05/28 05:40:37;;;;;;;;;;;;;;;22.60;90.28;99237.69;5038409;28;19928;-43
2023/05/28 05:43:02;;;;;;;;;;;;;;;21.98;93.95;99265.97;5037597;28;19921;-43
2023/05/28 05:45:27;;;;;;;;;;;;;;;21.26;97.44;99279.94;5038191;28;19932;-43
2023/05/28 05:47:52;;;;;;;;;;;;;;;20.60;99.90;99294.22;5037371;28;19921;-42
2023/05/28 05:50:17;;;;;;;;;;;;;;;20.03;100.00;99326.75;5037879;28;20180;-43
2023/05/28 05:52:43;;;;;;;;;;;;;;;19.50;100.00;99342.31;5038432;28;19955;-43
2023/05/28 05:55:08;;;;;;;;;;;;;;;20.15;100.00;99322.50;5037188;28;19921;-43
2023/05/28 05:57:36;;;;;;;;;;;;;;;19.65;100.00;99345.72;5037763;28;19925;-43
2023/05/28 06:00:01;;;;;;;;;;;;;;;19.46;100.00;99351.28;5038440;28;19971;-43
2023/05/28 06:02:26;;;;;;;;;;;;;;;18.83;100.00;99365.59;5036047;28;19956;-43
2023/05/28 06:04:51;;;;;;;;;;;;;;;18.87;100.00;99342.78;5037416;28;19971;-43
2023/05/28 06:07:17;;;;;;;;;;;;;;;20.01;100.00;99303.31;5039048;28;19923;-42
2023/05/28 06:09:42;;;;;;;;;;;;;;;20.75;100.00;99290.50;5038483;28;20319;-42
2023/05/28 06:12:07;;;;;;;;;;;;;;;19.93;100.00;99315.22;5036316;28;19948;-43
2023/05/28 06:14:32;;;;;;;;;;;;;;;21.35;100.00;99272.34;5038106;28;19928;-42
2023/05/28 06:16:58;;;;;;;;;;;;;;;21.71;100.00;99253.97;5034932;28;19921;-43
2023/05/28 06:19:23;;;;;;;;;;;;;;;23.13;97.15;99232.66;5038439;28;20389;-42
2023/05/28 06:21:48;;;;;;;;;;;;;;;24.80;86.06;99189.69;5037618;28;20003;-43
2023/05/28 06:24:13;;;;;;;;;;;;;;;23.63;86.52;99208.44;5038258;28;19927;-43
2023/05/28 06:26:39;;;;;;;;;;;;;;;22.94;85.55;99222.72;5034742;28;19917;-43
2023/05/28 06:29:06;;;;;;;;;;;;;;;23.75;82.93;99210.91;5038206;28;20263;-42
2023/05/28 06:31:31;;;;;;;;;;;;;;;21.92;94.78;99303.16;5039573;28;20368;-42
2023/05/28 06:33:56;;;;;;;;;;;;;;;21.47;97.20;99300.31;5039064;28;19924;-43
2023/05/28 06:36:22;;;;;;;;;;;;;;;23.71;88.87;99222.63;5036345;28;19921;-43
2023/05/28 06:38:47;;;;;;;;;;;;;;;24.23;86.09;99216.59;5035782;28;20008;-43
2023/05/28 06:41:12;;;;;;;;;;;;;;;22.87;85.34;99225.00;5037548;28;20049;-43
2023/05/28 06:43:38;;;;;;;;;;;;;;;23.80;85.43;99221.88;5036209;28;19959;-42
2023/05/28 06:46:03;;;;;;;;;;;;;;;21.77;88.26;99252.66;5037498;28;19972;-43
2023/05/28 06:48:28;;;;;;;;;;;;;;;23.76;87.55;99235.41;5036391;28;19927;-43
2023/05/28 06:50:54;;;;;;;;;;;;;;;24.95;82.17;99213.00;5036440;28;20331;-43
2023/05/28 06:53:19;;;;;;;;;;;;;;;23.69;81.32;99224.53;5037442;28;20084;-42
2023/05/28 06:55:44;;;;;;;;;;;;;;;26.08;75.84;99178.16;5037702;28;19931;-43
2023/05/28 06:58:09;;;;;;;;;;;;;;;24.87;76.58;99211.03;5018477;28;19921;-42
2023/05/28 07:00:35;;;;;;;;;;;;;;;24.84;74.76;99208.69;5034300;28;19990;-43
2023/05/28 07:03:00;;;;;;;;;;;;;;;23.54;85.04;99263.44;5034656;28;19916;-43
2023/05/28 07:05:25;;;;;;;;;;;;;;;25.39;82.15;99222.25;5036855;28;20374;-45
2023/05/28 07:07:50;;;;;;;;;;;;;;;25.20;78.34;99211.66;5037303;28;20012;-43
2023/05/28 07:10:16;;;;;;;;;;;;;;;24.81;82.97;99237.91;5036238;28;20004;-43
2023/05/28 07:12:41;;;;;;;;;;;;;;;24.12;83.40;99244.66;5035984;28;20437;-43
2023/05/28 07:15:07;;;;;;;;;;;;;;;23.13;86.29;99262.38;5035363;28;19920;-43
2023/05/28 07:17:32;;;;;;;;;;;;;;;24.74;84.75;99231.53;5037813;28;19917;-43
2023/05/28 07:19:57;;;;;;;;;;;;;;;24.33;82.39;99239.34;5037360;28;19927;-43
2023/05/28 07:22:24;;;;;;;;;;;;;;;22.69;87.86;99273.72;5038318;28;20003;-43
2023/05/28 07:24:49;;;;;;;;;;;;;;;24.06;87.34;99260.94;5036805;28;19923;-43
2023/05/28 07:27:14;;;;;;;;;;;;;;;22.88;88.71;99278.38;5036456;28;20583;-43
2023/05/28 07:29:40;;;;;;;;;;;;;;;23.41;87.61;99259.31;5036656;28;19927;-43
2023/05/28 07:32:05;;;;;;;;;;;;;;;23.80;87.49;99263.97;5036714;28;19925;-43
2023/05/28 07:34:30;;;;;;;;;;;;;;;23.57;87.37;99265.00;5036740;28;21212;-43
2023/05/28 07:36:55;;;;;;;;;;;;;;;25.08;84.29;99245.19;5036335;28;19928;-43
2023/05/28 07:39:21;;;;;;;;;;;;;;;24.78;84.06;99248.72;5035811;28;19920;-43
2023/05/28 07:41:46;;;;;;;;;;;;;;;23.57;85.83;99272.88;5001000;28;19917;-43
2023/05/28 07:44:11;;;;;;;;;;;;;;;24.87;83.36;99242.66;5034435;28;20012;-43
2023/05/28 07:46:36;;;;;;;;;;;;;;;24.01;86.71;99282.38;5035113;28;19986;-43
2023/05/28 07:49:02;;;;;;;;;;;;;;;26.19;82.50;99229.94;5036902;28;19920;-43
2023/05/28 07:51:27;;;;;;;;;;;;;;;24.24;87.38;99291.94;5036167;28;19925;-43
2023/05/28 07:53:53;;;;;;;;;;;;;;;25.20;86.07;99265.25;5035440;28;20004;-43
2023/05/28 07:56:18;;;;;;;;;;;;;;;24.77;84.43;99258.44;5036229;28;19962;-43
2023/05/28 07:58:43;;;;;;;;;;;;;;;24.87;87.64;99283.97;5016402;28;19921;-43
2023/05/28 08:01:12;;;;;;;;;;;;;;;25.39;86.10;99263.59;5032789;28;19928;-43
2023/05/28 08:03:37;;;;;;;;;;;;;;;27.06;84.00;99234.84;5033626;28;19923;-44
2023/05/28 08:06:03;;;;;;;;;;;;;;;25.45;87.58;99274.44;5035327;28;19920;-43
2023/05/28 08:08:28;;;;;;;;;;;;;;;27.82;81.10;99220.34;5035682;28;19917;-44
2023/05/28 08:10:53;;;;;;;;;;;;;;;27.20;83.89;99252.03;5034496;28;19978;-44
2023/05/28 08:13:18;;;;;;;;;;;;;;;25.78;84.63;99256.53;5034834;28;19929;-43
2023/05/28 08:15:44;;;;;;;;;;;;;;;23.90;87.74;99286.88;5036300;28;19969;-44
2023/05/28 08:18:09;;;;;;;;;;;;;;;23.97;87.33;99272.25;5036933;28;19971;-43
2023/05/28 08:20:35;;;;;;;;;;;;;;;24.65;89.73;99269.19;5035170;28;19921;-44
2023/05/28 08:23:00;;;;;;;;;;;;;;;25.52;83.67;99237.81;5037605;28;20002;-43
2023/05/28 08:25:25;;;;;;;;;;;;;;;26.26;83.97;99234.50;5040013;28;20357;-44
2023/05/28 08:27:50;;;;;;;;;;;;;;;26.13;82.20;99230.53;5040730;28;19921;-43
2023/05/28 08:30:16;;;;;;;;;;;;;;;26.10;85.24;99249.28;5039978;28;20640;-43
2023/05/28 08:32:42;;;;;;;;;;;;;;;27.75;77.87;99200.78;5040689;28;19951;-43
2023/05/28 08:35:07;;;;;;;;;;;;;;;26.47;76.47;99213.16;5039628;28;19970;-43
2023/05/28 08:37:32;;;;;;;;;;;;;;;25.55;82.66;99255.16;5039496;28;19926;-44
2023/05/28 08:39:58;;;;;;;;;;;;;;;27.80;76.25;99195.84;5040626;28;19978;-44
2023/05/28 08:42:23;;;;;;;;;;;;;;;26.71;76.62;99209.22;5040130;28;20403;-44
2023/05/28 08:44:48;;;;;;;;;;;;;;;26.28;76.92;99214.06;5037658;28;19925;-44
2023/05/28 08:47:13;;;;;;;;;;;;;;;27.90;75.10;99191.34;5039566;28;20267;-44
2023/05/28 08:49:41;;;;;;;;;;;;;;;27.74;74.30;99193.84;5039895;28;19950;-44
2023/05/28 08:52:07;;;;;;;;;;;;;;;26.50;77.04;99226.09;5039599;28;20425;-45
2023/05/28 08:54:32;;;;;;;;;;;;;;;28.39;74.72;99196.06;5019824;28;20350;-44
2023/05/28 08:56:58;;;;;;;;;;;;;;;28.02;69.50;99181.31;5021732;28;19955;-44
2023/05/28 08:59:24;;;;;;;;;;;;;;;28.16;68.82;99179.88;5038664;28;20430;-44
2023/05/28 09:01:50;;;;;;;;;;;;;;;25.86;69.79;99193.34;5037489;28;19917;-44
2023/05/28 09:04:15;;;;;;;;;;;;;;;26.52;69.81;99181.03;5016532;28;19925;-44
2023/05/28 09:06:40;;;;;;;;;;;;;;;28.74;70.20;99181.81;5036707;28;20325;-44
2023/05/28 09:09:09;;;;;;;;;;;;;;;27.76;66.40;99160.13;5037263;28;19920;-44
2023/05/28 09:11:35;;;;;;;;;;;;;;;26.44;65.51;99170.38;5035907;28;20386;-43
2023/05/28 09:14:07;;;;;;;;;;;;;;;26.74;70.87;99176.38;5036879;28;19923;-44
2023/05/28 09:16:33;;;;;;;;;;;;;;;25.32;69.34;99175.50;5037799;28;19927;-44
2023/05/28 09:19:02;;;;;;;;;;;;;;;28.07;64.74;99139.28;5034587;28;20338;-44
2023/05/28 09:21:27;;;;;;;;;;;;;;;26.52;60.65;99137.94;5035927;28;19966;-44
2023/05/28 09:23:53;;;;;;;;;;;;;;;27.63;61.21;99143.81;5037219;28;19925;-44
2023/05/28 09:26:19;;;;;;;;;;;;;;;29.59;61.16;99131.19;5035243;28;20393;-44
2023/05/28 09:28:45;;;;;;;;;;;;;;;28.31;59.97;99130.66;5038056;28;20014;-45
2023/05/28 09:31:12;;;;;;;;;;;;;;;27.77;56.86;99126.53;5036374;28;20959;-44
2023/05/28 09:33:46;;;;;;;;;;;;;;;26.36;62.45;99157.88;5037528;28;19982;-44
2023/05/28 09:36:15;;;;;;;;;;;;;;;27.90;59.60;99133.09;5037803;28;19917;-45
2023/05/28 09:38:40;;;;;;;;;;;;;;;28.39;58.38;99116.59;5037185;28;19917;-44
2023/05/28 09:41:15;;;;;;;;;;;;;;;26.89;62.13;99143.16;5036747;28;20278;-44
2023/05/28 09:43:40;;;;;;;;;;;;;;;26.65;61.10;99141.09;5019766;28;19913;-45
2023/05/28 09:46:07;;;;;;;;;;;;;;;28.29;61.54;99127.31;5037271;28;20450;-45
2023/05/28 09:48:32;;;;;;;;;;;;;;;27.75;61.02;99134.63;5037414;28;19916;-45
2023/05/28 09:50:58;;;;;;;;;;;;;;;26.48;63.45;99145.34;5038355;28;20057;-45
2023/05/28 09:53:23;;;;;;;;;;;;;;;28.00;63.19;99132.16;5017285;28;20137;-45
2023/05/28 09:55:49;;;;;;;;;;;;;;;27.58;58.89;99122.28;5020095;28;20325;-45
2023/05/28 09:58:15;;;;;;;;;;;;;;;26.33;61.74;99152.91;5020005;28;20012;-44
2023/05/28 10:00:40;;;;;;;;;;;;;;;29.25;55.37;99106.69;5037599;28;19920;-44
2023/05/28 10:03:10;;;;;;;;;;;;;;;28.06;60.58;99144.78;5037829;28;20028;-45
2023/05/28 10:05:35;;;;;;;;;;;;;;;27.60;60.41;99128.22;5022843;28;19917;-45
2023/05/28 10:08:01;;;;;;;;;;;;;;;28.76;62.66;99137.44;5039777;28;19967;-44
2023/05/28 10:10:26;;;;;;;;;;;;;;;29.36;59.31;99124.91;5037603;28;19925;-45
2023/05/28 10:12:53;;;;;;;;;;;;;;;27.15;57.74;99129.19;5021738;28;20352;-44
2023/05/28 10:15:18;;;;;;;;;;;;;;;28.01;58.49;99131.16;5020458;28;20744;-45
2023/05/28 10:17:44;;;;;;;;;;;;;;;28.67;61.23;99141.06;5021671;28;20015;-44
2023/05/28 10:20:14;;;;;;;;;;;;;;;29.19;59.67;99121.41;5021479;28;20396;-44
2023/05/28 10:22:39;;;;;;;;;;;;;;;28.43;60.32;99133.00;5040158;28;20016;-44
2023/05/28 10:25:07;;;;;;;;;;;;;;;28.74;60.86;99152.66;5039190;28;20007;-44
2023/05/28 10:27:32;;;;;;;;;;;;;;;29.40;59.97;99132.38;5021863;28;19924;-44
2023/05/28 10:29:58;;;;;;;;;;;;;;;28.72;56.07;99112.25;5021512;28;19920;-45
2023/05/28 10:32:23;;;;;;;;;;;;;;;28.07;60.33;99138.47;5021305;28;19947;-45
2023/05/28 10:34:48;;;;;;;;;;;;;;;29.74;59.36;99117.25;5020906;28;19990;-45
2023/05/28 10:37:14;;;;;;;;;;;;;;;28.76;59.48;99133.94;5021755;28;19920;-44
2023/05/28 10:39:42;;;;;;;;;;;;;;;30.03;54.07;99098.91;5021775;28;19921;-45
2023/05/28 10:42:08;;;;;;;;;;;;;;;29.31;59.75;99136.03;5038654;28;19917;-44
2023/05/28 10:44:49;;;;;;;;;;;;;;;27.80;60.91;99148.22;5039068;28;20802;-45
2023/05/28 10:47:16;;;;;;;;;;;;;;;29.15;61.84;99136.84;5038983;28;19921;-44
2023/05/28 10:50:01;;;;;;;;;;;;;;;30.23;57.63;99114.44;5038958;28;19929;-45
2023/05/28 10:52:26;;;;;;;;;;;;;;;29.00;58.92;99138.47;5021495;28;20008;-45
2023/05/28 10:54:52;;;;;;;;;;;;;;;30.94;51.44;99090.50;5038872;28;19917;-45
2023/05/28 10:57:21;;;;;;;;;;;;;;;29.48;52.61;99118.25;5038052;28;19924;-44
2023/05/28 10:59:49;;;;;;;;;;;;;;;28.87;56.77;99130.97;5019410;28;19933;-45
2023/05/28 11:02:21;;;;;;;;;;;;;;;32.06;47.69;99064.75;5035463;28;20014;-44
2023/05/28 11:04:53;;;;;;;;;;;;;;;29.89;47.38;99078.38;5039757;28;19921;-44
2023/05/28 11:07:18;;;;;;;;;;;;;;;30.62;47.88;99084.38;5020826;28;19932;-45
2023/05/28 11:09:47;;;;;;;;;;;;;;;29.42;51.61;99103.00;5038826;28;19920;-45
2023/05/28 11:12:12;;;;;;;;;;;;;;;29.34;51.85;99100.38;5020379;28;19912;-45
2023/05/28 11:14:38;;;;;;;;;;;;;;;28.49;50.43;99097.97;5037244;28;19966;-45
2023/05/28 11:17:07;;;;;;;;;;;;;;;29.45;51.43;99101.88;5037575;28;19999;-46
2023/05/28 11:19:38;;;;;;;;;;;;;;;29.30;52.05;99110.47;5039731;28;19918;-44
2023/05/28 11:22:03;;;;;;;;;;;;;;;28.52;54.39;99124.94;5039744;28;19917;-46
2023/05/28 11:24:29;;;;;;;;;;;;;;;31.83;45.88;99066.69;5038309;28;19920;-46
2023/05/28 11:26:54;;;;;;;;;;;;;;;30.79;47.79;99083.25;5038936;28;19988;-45
2023/05/28 11:29:20;;;;;;;;;;;;;;;27.89;51.39;99112.06;5039032;28;20435;-45
2023/05/28 11:31:45;;;;;;;;;;;;;;;31.85;48.73;99092.13;5039477;28;19925;-45
2023/05/28 11:34:10;;;;;;;;;;;;;;;31.08;43.83;99071.06;5039360;28;19921;-46
2023/05/28 11:36:42;;;;;;;;;;;;;;;32.95;44.94;99076.19;5038457;28;19921;-47
2023/05/28 11:39:08;;;;;;;;;;;;;;;31.11;42.96;99062.75;5039868;28;19917;-45
2023/05/28 11:41:33;;;;;;;;;;;;;;;30.63;43.90;99078.03;5039125;28;19925;-45
2023/05/28 11:43:58;;;;;;;;;;;;;;;30.10;43.78;99069.00;5037718;28;19962;-44
2023/05/28 11:46:23;;;;;;;;;;;;;;;30.18;46.61;99082.25;5038523;28;19921;-45
2023/05/28 11:48:48;;;;;;;;;;;;;;;29.96;43.92;99074.03;5039293;28;20301;-45
2023/05/28 11:51:14;;;;;;;;;;;;;;;30.91;48.63;99104.97;5039136;28;19970;-45
2023/05/28 11:53:42;;;;;;;;;;;;;;;33.04;46.87;99083.88;5039161;28;19966;-45
2023/05/28 11:56:08;;;;;;;;;;;;;;;32.02;43.24;99078.63;5035368;28;19921;-45
2023/05/28 11:58:34;;;;;;;;;;;;;;;33.18;42.47;99071.47;5037990;28;19924;-45
2023/05/28 12:01:00;;;;;;;;;;;;;;;30.79;43.65;99069.13;5038153;28;19943;-44
2023/05/28 12:03:25;;;;;;;;;;;;;;;31.48;44.99;99071.75;5038955;28;19925;-46
2023/05/28 12:05:51;;;;;;;;;;;;;;;30.66;45.24;99085.66;5038585;28;19916;-45
2023/05/28 12:08:17;;;;;;;;;;;;;;;30.30;47.35;99091.53;5038014;28;20587;-47
2023/05/28 12:10:42;;;;;;;;;;;;;;;32.25;44.17;99065.19;5038268;28;19978;-45
2023/05/28 12:13:08;;;;;;;;;;;;;;;30.30;46.28;99093.34;5039121;28;19917;-45
2023/05/28 12:15:33;;;;;;;;;;;;;;;31.43;41.64;99056.31;5037036;28;19925;-45
2023/05/28 12:18:00;;;;;;;;;;;;;;;30.73;41.67;99054.72;5039191;28;19916;-46
2023/05/28 12:20:28;;;;;;;;;;;;;;;30.99;39.25;99042.91;5012833;28;20297;-46
2023/05/28 12:23:00;;;;;;;;;;;;;;;30.59;42.99;99079.41;5038563;28;19917;-45
2023/05/28 12:25:25;;;;;;;;;;;;;;;31.98;42.63;99070.22;5020161;28;19928;-46
2023/05/28 12:27:50;;;;;;;;;;;;;;;31.23;42.58;99063.16;5038710;28;19920;-46
2023/05/28 12:30:16;;;;;;;;;;;;;;;31.03;43.29;99070.78;5038732;28;19920;-45
2023/05/28 12:32:41;;;;;;;;;;;;;;;32.61;38.38;99035.03;5038764;28;19916;-45
2023/05/28 12:35:07;;;;;;;;;;;;;;;30.98;41.64;99065.19;5037578;28;19928;-45
2023/05/28 12:37:32;;;;;;;;;;;;;;;30.84;41.21;99062.31;5039118;28;20007;-46